createdAt,value
2022-10-31T00:03:16.888Z,13.2
2022-10-31T00:13:17.387Z,13.2
2022-10-31T00:23:18.195Z,13.1
2022-10-31T00:33:19.263Z,12.9
2022-10-31T00:43:19.510Z,12.8
2022-10-31T00:53:20.390Z,12.6
2022-10-31T01:03:21.290Z,12.4
2022-10-31T01:33:23.428Z,12.1
2022-10-31T01:43:23.759Z,12
2022-10-31T01:53:26.061Z,11.8
2022-10-31T02:03:25.105Z,11.7
2022-10-31T02:23:25.947Z,11.5
2022-10-31T02:33:26.419Z,11.3
2022-10-31T02:53:26.599Z,11.1
2022-10-31T03:23:28.918Z,10.8
2022-10-31T03:43:29.943Z,10.6
2022-10-31T04:33:32.120Z,10.1
2022-10-31T04:43:32.291Z,10.1
2022-10-31T04:53:32.683Z,10
2022-10-31T05:03:33.247Z,10
2022-10-31T05:33:35.877Z,10.1
2022-10-31T05:43:36.379Z,10
2022-10-31T05:53:36.854Z,10
2022-10-31T06:03:37.388Z,10.1
2022-10-31T06:13:37.861Z,10
2022-10-31T06:33:39.236Z,10
2022-10-31T06:43:39.741Z,10.1
2022-10-31T06:53:39.890Z,10.2
2022-10-31T07:03:39.966Z,10.3
2022-10-31T07:13:40.591Z,10.4
2022-10-31T07:33:41.067Z,10.9
2022-10-31T07:43:41.583Z,11
2022-10-31T07:53:42.554Z,11.1
2022-10-31T08:03:43.439Z,11.2
2022-10-31T08:13:43.832Z,11.4
2022-10-31T08:33:45.206Z,11.9
2022-10-31T08:43:45.821Z,12.1
2022-10-31T08:53:46.810Z,12.4
2022-10-31T09:03:47.514Z,12.7
2022-10-31T09:13:47.950Z,12.9
2022-10-31T09:23:48.130Z,13.2
2022-10-31T09:43:48.990Z,13.6
2022-10-31T09:53:49.365Z,14.1
2022-10-31T10:13:50.341Z,14.6
2022-10-31T10:23:50.824Z,14.8
2022-10-31T10:33:51.901Z,15
2022-10-31T10:43:52.738Z,15.2
2022-10-31T10:53:53.239Z,15.6
2022-10-31T11:03:53.876Z,15.9
2022-10-31T11:13:54.272Z,16.1
2022-10-31T11:23:55.018Z,16.3
2022-10-31T11:33:55.713Z,16.5
2022-10-31T11:43:56.669Z,16.6
2022-10-31T11:53:58.457Z,16.8
2022-10-31T12:03:58.112Z,17
2022-10-31T12:14:02.813Z,17.2
2022-10-31T12:23:59.070Z,17.4
2022-10-31T12:34:00.069Z,17.5
2022-10-31T12:44:00.762Z,17.6
2022-10-31T12:54:01.310Z,17.6
2022-10-31T13:14:03.282Z,17.7
2022-10-31T13:24:04.249Z,17.7
2022-10-31T13:34:04.456Z,17.8
2022-10-31T13:44:05.215Z,17.8
2022-10-31T13:54:05.622Z,17.8
2022-10-31T14:04:11.414Z,17.7
2022-10-31T14:14:07.144Z,17.7
2022-10-31T14:44:08.786Z,17.7
2022-10-31T14:54:09.591Z,17.7
2022-10-31T15:04:22.844Z,17.6
2022-10-31T15:14:11.485Z,17.5
2022-10-31T15:24:11.518Z,17.4
2022-10-31T15:34:11.915Z,17.3
2022-10-31T15:44:12.944Z,17.2
2022-10-31T16:04:13.684Z,16.9
2022-10-31T16:14:14.722Z,16.8
2022-10-31T16:24:15.342Z,16.7
2022-10-31T16:34:15.974Z,16.5
2022-10-31T16:54:17.668Z,16
2022-10-31T17:04:18.391Z,15.6
2022-10-31T17:14:18.549Z,15.4
2022-10-31T17:24:19.024Z,15.3
2022-10-31T17:34:19.300Z,15.1
2022-10-31T17:44:20.148Z,14.7
2022-10-31T18:04:20.927Z,14.3
2022-10-31T18:14:21.222Z,14.2
2022-10-31T18:34:22.431Z,14.2
2022-10-31T18:44:23.383Z,14.1
2022-10-31T19:14:25.467Z,13.6
2022-10-31T19:44:26.802Z,13.6
2022-10-31T19:54:27.444Z,13.5
2022-10-31T20:14:28.486Z,13.3
2022-10-31T20:24:29.459Z,13.2
2022-10-31T20:34:30.057Z,13
2022-10-31T20:44:30.799Z,13
2022-10-31T20:54:31.426Z,12.8
2022-10-31T21:24:32.757Z,12.4
2022-10-31T21:34:33.636Z,12.4
2022-10-31T21:44:34.150Z,12.4
2022-10-31T22:24:36.144Z,12.4
2022-10-31T22:34:36.891Z,12.2
2022-10-31T22:44:37.408Z,12.1
2022-10-31T22:54:37.991Z,12.1
2022-10-31T23:04:38.928Z,11.9
2022-10-31T23:14:39.719Z,11.7
2022-10-31T23:24:40.676Z,11.5
2022-10-31T23:34:40.871Z,11.4
2022-10-31T23:44:41.528Z,11.3
